WXM80 ListenWXM80 Stop

You find our weather info also at:

UK Metoffice

WeatherCloud

Weather Underground

Northeastern Weather Network

AWEKAS

Citizen Weather Observer Program (CWOP)

HAMweather, WeatherForYou, PWS Weather


Weather Underground History page Text

Daily Summary for November 17, 2017 Units:  English    Metric   Both
« Previous Day
Next Day »
Daily Weekly Monthly Yearly Custom
  High: Low: Average:
Temperature: 48.7 °F 39.0 °F 43.9 °F
Dew Point: 37.2 °F 23.6 °F 30 °F
Humidity: 73 % 46 % 58 %
Wind Speed: 12.2 mph 0.0 mph 5.6 mph
Wind Gust: 24.2 mph - -
Wind:- - WNW
Pressure: 30.11 in 29.86 in -
Precipitation: 0.00 in    
Historical Graphs
 
 
Tabular Data for November 17, 2017
Time Temperature Dew Point Pressure Wind Wind Speed Wind Gust Humidity Rainfall Rate (Hourly)
00:01 45.8 °F 36.9 °F 29.86 in WNW 6.4 mph 19.6 mph 71 % 0.00 in
00:02 45.8 °F 36.9 °F 29.86 in West 9.5 mph 16.1 mph 71 % 0.00 in
00:07 45.7 °F 36.8 °F 29.86 in WNW 7.0 mph 10.4 mph 71 % 0.00 in
00:12 45.7 °F 37.2 °F 29.86 in North 8.9 mph 14.0 mph 72 % 0.00 in
00:17 45.6 °F 36.7 °F 29.86 in West 12.2 mph 19.6 mph 71 % 0.00 in
00:22 45.6 °F 37.1 °F 29.87 in West 4.4 mph 11.5 mph 72 % 0.00 in
00:27 45.5 °F 36.6 °F 29.87 in North 5.0 mph 16.1 mph 71 % 0.00 in
00:32 45.4 °F 36.9 °F 29.87 in WNW 4.6 mph 9.2 mph 72 % 0.00 in
00:37 45.3 °F 36.8 °F 29.87 in WNW 5.6 mph 18.0 mph 72 % 0.00 in
00:42 45.2 °F 36.7 °F 29.87 in West 9.9 mph 16.1 mph 72 % 0.00 in
00:47 45.2 °F 36.7 °F 29.87 in West 3.4 mph 9.0 mph 72 % 0.00 in
00:52 45.1 °F 37.0 °F 29.87 in WNW 9.7 mph 17.3 mph 73 % 0.00 in
00:57 45.0 °F 36.5 °F 29.87 in WNW 8.0 mph 13.8 mph 72 % 0.00 in
01:02 44.9 °F 36.4 °F 29.88 in West 4.0 mph 9.2 mph 72 % 0.00 in
01:08 44.8 °F 36.3 °F 29.88 in West 6.7 mph 15.0 mph 72 % 0.00 in
01:13 44.7 °F 36.2 °F 29.88 in West 7.9 mph 11.5 mph 72 % 0.00 in
01:18 44.7 °F 36.2 °F 29.88 in SSW 6.2 mph 9.2 mph 72 % 0.00 in
01:23 44.6 °F 36.1 °F 29.88 in West 9.7 mph 18.0 mph 72 % 0.00 in
01:28 44.5 °F 36.4 °F 29.88 in West 6.9 mph 12.7 mph 73 % 0.00 in
01:33 44.5 °F 36.0 °F 29.88 in West 6.3 mph 13.8 mph 72 % 0.00 in
01:38 44.4 °F 35.9 °F 29.88 in WNW 8.5 mph 15.0 mph 72 % 0.00 in
01:43 44.4 °F 35.9 °F 29.88 in WNW 7.0 mph 17.3 mph 72 % 0.00 in
01:48 44.3 °F 35.1 °F 29.89 in NW 10.4 mph 19.6 mph 70 % 0.00 in
01:53 44.3 °F 35.1 °F 29.92 in WSW 7.8 mph 16.1 mph 70 % 0.00 in
01:58 44.3 °F 35.1 °F 29.92 in NW 6.6 mph 16.1 mph 70 % 0.00 in
02:03 44.2 °F 35.0 °F 29.92 in West 7.3 mph 15.0 mph 70 % 0.00 in
02:08 44.1 °F 34.6 °F 29.92 in NW 5.5 mph 13.8 mph 69 % 0.00 in
02:13 44.1 °F 34.2 °F 29.92 in West 10.3 mph 24.2 mph 68 % 0.00 in
02:18 44.0 °F 34.1 °F 29.93 in North 5.9 mph 11.5 mph 68 % 0.00 in
02:23 43.9 °F 34.0 °F 29.92 in West 8.7 mph 12.7 mph 68 % 0.00 in
02:28 43.8 °F 34.3 °F 29.92 in SW 10.3 mph 18.4 mph 69 % 0.00 in
02:33 43.8 °F 34.3 °F 29.93 in SSW 5.4 mph 10.4 mph 69 % 0.00 in
02:34 43.8 °F 34.3 °F 29.93 in SW 10.0 mph 19.6 mph 69 % 0.00 in
02:39 43.7 °F 34.2 °F 29.93 in West 5.4 mph 11.5 mph 69 % 0.00 in
02:44 43.7 °F 34.2 °F 29.93 in West 6.8 mph 16.1 mph 69 % 0.00 in
02:49 43.6 °F 34.1 °F 29.93 in NNW 9.5 mph 17.3 mph 69 % 0.00 in
02:54 43.6 °F 33.7 °F 29.94 in SW 10.0 mph 15.0 mph 68 % 0.00 in
02:59 43.6 °F 34.1 °F 29.93 in NW 7.5 mph 15.0 mph 69 % 0.00 in
03:04 43.6 °F 33.7 °F 29.93 in NNW 7.7 mph 16.1 mph 68 % 0.00 in
03:09 43.6 °F 33.7 °F 29.94 in WNW 6.5 mph 16.1 mph 68 % 0.00 in
03:14 43.6 °F 33.7 °F 29.94 in NW 7.9 mph 16.1 mph 68 % 0.00 in
03:19 43.7 °F 33.5 °F 29.94 in NW 9.9 mph 16.1 mph 67 % 0.00 in
03:24 43.7 °F 33.5 °F 29.95 in SW 10.9 mph 19.6 mph 67 % 0.00 in
03:29 43.8 °F 33.2 °F 29.95 in WNW 8.4 mph 16.1 mph 66 % 0.00 in
03:39 43.8 °F 33.6 °F 29.95 in NNW 7.8 mph 13.8 mph 67 % 0.00 in
03:44 43.8 °F 33.6 °F 29.95 in NNW 8.1 mph 12.7 mph 67 % 0.00 in
03:49 43.7 °F 32.7 °F 29.95 in WNW 9.3 mph 17.3 mph 65 % 0.00 in
03:54 43.7 °F 32.7 °F 29.94 in NNE 4.3 mph 12.7 mph 65 % 0.00 in
03:59 43.7 °F 32.7 °F 29.95 in West 10.1 mph 16.1 mph 65 % 0.00 in
04:04 43.7 °F 33.1 °F 29.95 in WNW 9.9 mph 23.0 mph 66 % 0.00 in
04:09 43.6 °F 33.0 °F 29.95 in WNW 7.7 mph 13.8 mph 66 % 0.00 in
04:14 43.6 °F 33.4 °F 29.96 in West 6.2 mph 12.0 mph 67 % 0.00 in
04:19 43.5 °F 32.5 °F 29.96 in NW 10.1 mph 16.1 mph 65 % 0.00 in
04:24 43.4 °F 32.4 °F 29.96 in WNW 6.7 mph 11.5 mph 65 % 0.00 in
04:29 43.3 °F 32.3 °F 29.97 in NNE 4.9 mph 11.5 mph 65 % 0.00 in
04:34 43.3 °F 32.3 °F 29.97 in WNW 7.2 mph 17.3 mph 65 % 0.00 in
04:39 43.2 °F 32.2 °F 29.97 in NNW 11.2 mph 15.0 mph 65 % 0.00 in
04:44 43.2 °F 32.2 °F 29.98 in WNW 7.6 mph 11.5 mph 65 % 0.00 in
04:49 43.2 °F 32.6 °F 29.98 in West 5.2 mph 6.9 mph 66 % 0.00 in
04:55 43.1 °F 32.1 °F 29.98 in West 9.3 mph 16.1 mph 65 % 0.00 in
05:00 43.0 °F 32.0 °F 29.99 in NNW 7.7 mph 17.3 mph 65 % 0.00 in
05:05 42.9 °F 31.9 °F 29.98 in West 8.0 mph 19.6 mph 65 % 0.00 in
05:10 42.8 °F 32.2 °F 29.98 in NW 6.3 mph 12.7 mph 66 % 0.00 in
05:15 42.7 °F 32.1 °F 29.98 in WNW 6.0 mph 12.0 mph 66 % 0.00 in
05:20 42.7 °F 32.5 °F 29.98 in WNW 5.2 mph 12.7 mph 67 % 0.00 in
05:25 42.5 °F 31.6 °F 29.98 in West 11.4 mph 19.6 mph 65 % 0.00 in
05:30 42.5 °F 31.6 °F 29.99 in WSW 9.9 mph 19.0 mph 65 % 0.00 in
05:35 42.5 °F 32.3 °F 29.99 in NNW 8.3 mph 19.6 mph 67 % 0.00 in
05:40 42.4 °F 31.5 °F 29.99 in West 9.4 mph 18.4 mph 65 % 0.00 in
05:45 42.3 °F 31.7 °F 29.99 in North 8.2 mph 14.0 mph 66 % 0.00 in
05:50 42.3 °F 31.4 °F 29.99 in West 6.8 mph 13.8 mph 65 % 0.00 in
05:55 42.2 °F 31.6 °F 29.99 in WNW 11.3 mph 16.1 mph 66 % 0.00 in
06:00 42.2 °F 31.6 °F 30.00 in West 7.7 mph 17.3 mph 66 % 0.00 in
06:05 42.1 °F 31.6 °F 30.00 in NW 8.5 mph 13.8 mph 66 % 0.00 in
06:10 42.1 °F 31.6 °F 30.01 in WNW 7.3 mph 11.5 mph 66 % 0.00 in
06:16 42.0 °F 31.5 °F 30.01 in WNW 8.6 mph 16.1 mph 66 % 0.00 in
06:21 42.0 °F 31.5 °F 30.01 in West 8.0 mph 18.0 mph 66 % 0.00 in
06:26 42.0 °F 32.2 °F 30.01 in WNW 6.0 mph 17.0 mph 68 % 0.00 in
06:31 41.9 °F 31.4 °F 30.01 in WSW 10.9 mph 18.4 mph 66 % 0.00 in
06:36 41.9 °F 31.0 °F 30.01 in WNW 7.0 mph 17.0 mph 65 % 0.00 in
06:41 41.8 °F 31.3 °F 30.02 in WNW 8.0 mph 20.0 mph 66 % 0.00 in
06:46 41.8 °F 31.6 °F 30.01 in WNW 2.0 mph 12.0 mph 67 % 0.00 in
06:51 41.8 °F 31.3 °F 30.01 in West 12.0 mph 20.0 mph 66 % 0.00 in
06:56 41.7 °F 31.5 °F 30.02 in WNW 8.0 mph 16.0 mph 67 % 0.00 in
07:01 41.6 °F 32.2 °F 30.02 in West 6.0 mph 11.5 mph 69 % 0.00 in
07:06 41.5 °F 31.4 °F 30.02 in WNW 9.6 mph 18.4 mph 67 % 0.00 in
07:11 41.5 °F 32.1 °F 30.03 in North 5.9 mph 15.0 mph 69 % 0.00 in
07:16 41.5 °F 32.4 °F 30.03 in WNW 1.8 mph 8.1 mph 70 % 0.00 in
07:21 41.4 °F 31.6 °F 30.03 in West 11.2 mph 19.6 mph 68 % 0.00 in
07:26 41.4 °F 31.6 °F 30.03 in NW 8.2 mph 17.3 mph 68 % 0.00 in
07:31 41.4 °F 31.6 °F 30.03 in NW 9.4 mph 15.0 mph 68 % 0.00 in
07:36 41.3 °F 31.5 °F 30.04 in WNW 8.7 mph 13.8 mph 68 % 0.00 in
07:41 41.3 °F 31.9 °F 30.04 in NNW 4.1 mph 9.0 mph 69 % 0.00 in
07:46 41.3 °F 31.9 °F 30.05 in WSW 4.0 mph 6.0 mph 69 % 0.00 in
07:51 41.3 °F 31.5 °F 30.05 in NW 5.5 mph 11.5 mph 68 % 0.00 in
07:56 41.4 °F 32.0 °F 30.05 in West 7.6 mph 13.8 mph 69 % 0.00 in
08:01 41.4 °F 32.3 °F 30.05 in NW 4.9 mph 11.5 mph 70 % 0.00 in
08:06 41.5 °F 31.7 °F 30.05 in WNW 3.8 mph 9.2 mph 68 % 0.00 in
08:11 41.6 °F 32.2 °F 30.05 in NNW 4.2 mph 11.5 mph 69 % 0.00 in
08:16 41.8 °F 32.0 °F 30.05 in NNE 7.0 mph 13.8 mph 68 % 0.00 in
08:21 41.9 °F 31.7 °F 30.05 in WNW 7.2 mph 11.0 mph 67 % 0.00 in
08:27 42.1 °F 31.9 °F 30.06 in West 7.3 mph 11.5 mph 67 % 0.00 in
08:32 42.2 °F 31.6 °F 30.06 in NW 6.1 mph 18.4 mph 66 % 0.00 in
08:36 42.3 °F 32.1 °F 30.06 in NW 6.8 mph 12.7 mph 67 % 0.00 in
08:41 42.5 °F 31.9 °F 30.06 in WNW 6.0 mph 12.7 mph 66 % 0.00 in
08:47 42.7 °F 32.5 °F 30.06 in NW 4.3 mph 13.8 mph 67 % 0.00 in
08:52 43.0 °F 32.0 °F 30.06 in West 8.3 mph 17.3 mph 65 % 0.00 in
08:57 43.2 °F 31.4 °F 30.06 in NNW 7.1 mph 15.0 mph 63 % 0.00 in
09:02 43.6 °F 32.6 °F 30.06 in West 4.7 mph 10.4 mph 65 % 0.00 in
09:07 44.0 °F 32.2 °F 30.07 in NW 5.8 mph 11.5 mph 63 % 0.00 in
09:12 44.4 °F 33.0 °F 30.07 in WNW 3.9 mph 15.0 mph 64 % 0.00 in
09:17 44.6 °F 32.0 °F 30.07 in WNW 4.0 mph 11.5 mph 61 % 0.00 in
09:22 44.9 °F 32.7 °F 30.07 in NW 2.8 mph 9.2 mph 62 % 0.00 in
09:23 45.0 °F 33.2 °F 30.07 in NW 6.4 mph 9.2 mph 63 % 0.00 in
09:28 45.4 °F 32.7 °F 30.07 in NNW 5.8 mph 9.2 mph 61 % 0.00 in
09:33 45.6 °F 32.1 °F 30.08 in NW 4.9 mph 8.1 mph 59 % 0.00 in
09:38 45.9 °F 31.9 °F 30.07 in NNW 4.4 mph 11.5 mph 58 % 0.00 in
09:43 46.3 °F 33.6 °F 30.07 in NNE 4.7 mph 9.0 mph 61 % 0.00 in
09:49 46.7 °F 33.5 °F 30.07 in NNW 5.7 mph 11.5 mph 60 % 0.00 in
09:54 47.0 °F 34.2 °F 30.07 in WNW 2.9 mph 9.2 mph 61 % 0.00 in
09:59 47.3 °F 33.3 °F 30.08 in NW 3.6 mph 11.5 mph 58 % 0.00 in
10:04 47.6 °F 33.5 °F 30.08 in NNW 3.4 mph 6.9 mph 58 % 0.00 in
10:09 47.8 °F 32.4 °F 30.07 in West 6.6 mph 12.7 mph 55 % 0.00 in
10:14 47.8 °F 32.4 °F 30.07 in NW 3.9 mph 11.5 mph 55 % 0.00 in
10:19 47.8 °F 32.4 °F 30.08 in West 5.4 mph 10.4 mph 55 % 0.00 in
10:21 47.8 °F 31.9 °F 30.07 in WNW 9.0 mph 16.0 mph 54 % 0.00 in
10:26 47.6 °F 32.2 °F 30.08 in WNW 8.0 mph 15.0 mph 55 % 0.00 in
10:31 47.6 °F 32.7 °F 30.07 in WNW 7.0 mph 12.0 mph 56 % 0.00 in
10:36 47.5 °F 33.0 °F 30.07 in WNW 5.0 mph 17.0 mph 57 % 0.00 in
10:41 47.5 °F 32.1 °F 30.07 in NW 6.0 mph 13.0 mph 55 % 0.00 in
10:46 47.3 °F 32.4 °F 30.07 in NW 7.0 mph 15.0 mph 56 % 0.00 in
10:51 47.0 °F 32.1 °F 30.07 in WNW 6.0 mph 15.0 mph 56 % 0.00 in
10:56 46.8 °F 32.4 °F 30.06 in NW 2.8 mph 11.5 mph 57 % 0.00 in
11:01 46.6 °F 31.7 °F 30.06 in NNW 3.9 mph 12.7 mph 56 % 0.00 in
11:06 46.4 °F 32.0 °F 30.06 in WNW 2.9 mph 10.0 mph 57 % 0.00 in
11:16 46.0 °F 31.6 °F 30.06 in NW 6.0 mph 14.0 mph 57 % 0.00 in
11:21 45.9 °F 31.9 °F 30.05 in NW 3.0 mph 10.0 mph 58 % 0.00 in
11:26 45.8 °F 31.5 °F 30.05 in WNW 8.0 mph 14.0 mph 57 % 0.00 in
11:31 45.8 °F 31.9 °F 30.05 in WNW 6.0 mph 15.0 mph 58 % 0.00 in
11:36 45.7 °F 31.3 °F 30.05 in WNW 6.0 mph 20.0 mph 57 % 0.00 in
11:41 45.6 °F 31.7 °F 30.05 in WNW 5.0 mph 12.0 mph 58 % 0.00 in
11:46 45.7 °F 31.3 °F 30.05 in WNW 6.0 mph 13.0 mph 57 % 0.00 in
11:51 45.7 °F 31.3 °F 30.05 in West 6.0 mph 12.0 mph 57 % 0.00 in
11:56 45.8 °F 31.9 °F 30.04 in West 4.1 mph 8.0 mph 58 % 0.00 in
12:01 45.9 °F 31.1 °F 30.04 in West 6.2 mph 11.5 mph 56 % 0.00 in
12:02 45.9 °F 30.6 °F 30.04 in WSW 3.5 mph 11.5 mph 55 % 0.00 in
12:07 45.9 °F 31.1 °F 30.04 in West 4.5 mph 9.2 mph 56 % 0.00 in
12:12 46.0 °F 31.2 °F 30.04 in West 2.7 mph 9.2 mph 56 % 0.00 in
12:17 46.1 °F 31.3 °F 30.04 in WNW 7.9 mph 10.4 mph 56 % 0.00 in
12:22 46.2 °F 30.9 °F 30.04 in WNW 7.0 mph 12.7 mph 55 % 0.00 in
12:28 46.3 °F 30.1 °F 30.04 in West 7.2 mph 10.4 mph 53 % 0.00 in
12:33 46.4 °F 30.6 °F 30.04 in WNW 6.6 mph 15.0 mph 54 % 0.00 in
12:38 46.5 °F 30.3 °F 30.04 in WNW 7.7 mph 13.0 mph 53 % 0.00 in
12:43 46.5 °F 31.2 °F 30.05 in NW 2.4 mph 5.0 mph 55 % 0.00 in
12:48 46.6 °F 31.3 °F 30.05 in SW 3.9 mph 11.5 mph 55 % 0.00 in
12:53 46.8 °F 31.5 °F 30.05 in WNW 4.7 mph 8.1 mph 55 % 0.00 in
12:58 46.9 °F 31.1 °F 30.05 in WNW 7.2 mph 15.0 mph 54 % 0.00 in
13:03 47.0 °F 30.7 °F 30.05 in West 8.3 mph 10.4 mph 53 % 0.00 in
13:08 47.2 °F 30.5 °F 30.05 in WNW 4.0 mph 12.7 mph 52 % 0.00 in
13:13 47.4 °F 31.1 °F 30.05 in West 7.2 mph 15.0 mph 53 % 0.00 in
13:18 47.7 °F 31.4 °F 30.05 in WNW 5.0 mph 8.1 mph 53 % 0.00 in
13:23 48.0 °F 31.2 °F 30.05 in West 6.9 mph 12.7 mph 52 % 0.00 in
13:28 48.2 °F 30.9 °F 30.05 in WNW 4.6 mph 15.0 mph 51 % 0.00 in
13:33 48.4 °F 30.6 °F 30.05 in WSW 7.2 mph 13.8 mph 50 % 0.00 in
13:38 48.5 °F 30.7 °F 30.05 in West 8.3 mph 11.5 mph 50 % 0.00 in
13:43 48.6 °F 30.8 °F 30.05 in WSW 7.4 mph 15.0 mph 50 % 0.00 in
13:48 48.7 °F 30.9 °F 30.05 in SSW 3.6 mph 9.2 mph 50 % 0.00 in
13:53 48.7 °F 30.4 °F 30.05 in WSW 8.5 mph 12.0 mph 49 % 0.00 in
13:58 48.7 °F 29.9 °F 30.05 in WNW 6.6 mph 15.0 mph 48 % 0.00 in
14:03 48.7 °F 30.4 °F 30.05 in NW 6.3 mph 9.2 mph 49 % 0.00 in
14:08 48.5 °F 29.2 °F 30.05 in NW 5.7 mph 12.7 mph 47 % 0.00 in
14:13 48.4 °F 30.1 °F 30.04 in SW 4.1 mph 8.1 mph 49 % 0.00 in
14:18 48.3 °F 29.0 °F 30.05 in WNW 8.3 mph 11.0 mph 47 % 0.00 in
14:23 48.1 °F 29.3 °F 30.04 in SW 5.3 mph 9.2 mph 48 % 0.00 in
14:28 47.9 °F 29.6 °F 30.04 in West 6.7 mph 11.5 mph 49 % 0.00 in
14:33 47.7 °F 30.0 °F 30.04 in WSW 7.3 mph 13.0 mph 50 % 0.00 in
14:38 47.6 °F 29.9 °F 30.05 in West 6.6 mph 10.4 mph 50 % 0.00 in
14:44 47.5 °F 29.8 °F 30.05 in NW 6.3 mph 11.5 mph 50 % 0.00 in
14:49 47.4 °F 29.7 °F 30.05 in WSW 8.9 mph 12.0 mph 50 % 0.00 in
14:54 47.2 °F 29.5 °F 30.05 in WSW 7.3 mph 14.0 mph 50 % 0.00 in
14:59 47.1 °F 28.9 °F 30.05 in SW 9.2 mph 17.3 mph 49 % 0.00 in
15:00 47.1 °F 28.9 °F 30.05 in WSW 8.0 mph 16.1 mph 49 % 0.00 in
15:05 46.9 °F 28.7 °F 30.06 in West 10.8 mph 23.0 mph 49 % 0.00 in
15:10 46.9 °F 29.2 °F 30.06 in WSW 6.4 mph 11.5 mph 50 % 0.00 in
15:15 46.8 °F 29.1 °F 30.06 in WSW 5.1 mph 11.5 mph 50 % 0.00 in
15:20 46.7 °F 29.0 °F 30.06 in NW 10.0 mph 17.3 mph 50 % 0.00 in
15:25 46.6 °F 29.4 °F 30.06 in NW 6.1 mph 18.0 mph 51 % 0.00 in
15:30 46.5 °F 29.3 °F 30.06 in WNW 8.3 mph 17.3 mph 51 % 0.00 in
15:35 46.4 °F 28.8 °F 30.06 in West 4.9 mph 9.2 mph 50 % 0.00 in
15:40 46.3 °F 28.7 °F 30.07 in WNW 6.3 mph 11.5 mph 50 % 0.00 in
15:45 46.2 °F 28.6 °F 30.07 in NW 5.6 mph 8.1 mph 50 % 0.00 in
15:50 46.1 °F 28.5 °F 30.06 in WNW 8.8 mph 15.0 mph 50 % 0.00 in
15:55 45.9 °F 28.3 °F 30.07 in NW 5.2 mph 11.5 mph 50 % 0.00 in
16:00 45.8 °F 27.7 °F 30.07 in West 6.7 mph 17.3 mph 49 % 0.00 in
16:05 45.6 °F 27.5 °F 30.07 in WSW 7.5 mph 15.0 mph 49 % 0.00 in
16:10 45.6 °F 28.0 °F 30.07 in West 7.5 mph 13.8 mph 50 % 0.00 in
16:15 45.5 °F 28.4 °F 30.07 in WNW 6.1 mph 12.7 mph 51 % 0.00 in
16:20 45.5 °F 28.4 °F 30.07 in West 3.0 mph 5.8 mph 51 % 0.00 in
16:25 45.4 °F 26.8 °F 30.07 in West 7.5 mph 16.1 mph 48 % 0.00 in
16:30 45.3 °F 26.7 °F 30.08 in West 4.8 mph 8.1 mph 48 % 0.00 in
16:35 45.2 °F 26.7 °F 30.08 in WNW 7.6 mph 13.8 mph 48 % 0.00 in
16:40 45.2 °F 26.7 °F 30.08 in WSW 3.5 mph 6.0 mph 48 % 0.00 in
16:45 45.1 °F 26.6 °F 30.08 in WNW 3.1 mph 6.0 mph 48 % 0.00 in
16:50 45.0 °F 25.4 °F 30.08 in West 3.8 mph 6.9 mph 46 % 0.00 in
16:55 44.9 °F 25.3 °F 30.08 in NNW 6.8 mph 11.5 mph 46 % 0.00 in
17:00 44.8 °F 26.3 °F 30.08 in West 5.5 mph 10.0 mph 48 % 0.00 in
17:05 44.7 °F 26.2 °F 30.08 in WNW 7.0 mph 17.3 mph 48 % 0.00 in
17:10 44.6 °F 26.6 °F 30.08 in WNW 5.2 mph 8.1 mph 49 % 0.00 in
17:15 44.5 °F 26.5 °F 30.07 in WNW 2.8 mph 9.2 mph 49 % 0.00 in
17:20 44.5 °F 27.0 °F 30.08 in WNW 3.2 mph 11.5 mph 50 % 0.00 in
17:25 44.4 °F 25.9 °F 30.08 in West 6.8 mph 11.5 mph 48 % 0.00 in
17:30 44.5 °F 26.5 °F 30.08 in SW 3.4 mph 11.5 mph 49 % 0.00 in
17:35 44.4 °F 26.4 °F 30.08 in WNW 3.5 mph 5.0 mph 49 % 0.00 in
17:41 44.4 °F 25.9 °F 30.08 in WNW 5.0 mph 10.0 mph 48 % 0.00 in
17:46 44.3 °F 25.8 °F 30.08 in WNW 3.0 mph 12.0 mph 48 % 0.00 in
17:51 44.2 °F 25.2 °F 30.08 in WNW 6.0 mph 12.0 mph 47 % 0.00 in
17:56 44.2 °F 25.2 °F 30.08 in West 6.0 mph 12.0 mph 47 % 0.00 in
18:01 44.1 °F 25.6 °F 30.09 in NW 5.7 mph 8.1 mph 48 % 0.00 in
18:06 44.0 °F 25.0 °F 30.09 in West 4.8 mph 10.4 mph 47 % 0.00 in
18:11 44.0 °F 25.0 °F 30.09 in West 0.5 mph 4.6 mph 47 % 0.00 in
18:16 43.9 °F 25.5 °F 30.09 in WNW 1.4 mph 5.8 mph 48 % 0.00 in
18:21 43.8 °F 25.4 °F 30.09 in WNW 1.6 mph 6.9 mph 48 % 0.00 in
18:26 43.7 °F 25.3 °F 30.09 in West 2.5 mph 6.9 mph 48 % 0.00 in
18:31 43.6 °F 25.2 °F 30.09 in WNW 1.9 mph 3.5 mph 48 % 0.00 in
18:36 43.5 °F 25.1 °F 30.09 in West 1.8 mph 3.5 mph 48 % 0.00 in
18:41 43.4 °F 25.5 °F 30.09 in West 3.0 mph 5.8 mph 49 % 0.00 in
18:46 43.3 °F 24.4 °F 30.09 in WSW 4.4 mph 8.1 mph 47 % 0.00 in
18:51 43.1 °F 25.2 °F 30.09 in WNW 1.7 mph 6.9 mph 49 % 0.00 in
18:56 43.1 °F 24.7 °F 30.10 in West 2.5 mph 6.9 mph 48 % 0.00 in
19:01 42.9 °F 24.5 °F 30.09 in WNW 2.4 mph 5.8 mph 48 % 0.00 in
19:06 42.8 °F 24.4 °F 30.09 in West 2.5 mph 9.2 mph 48 % 0.00 in
19:11 42.7 °F 24.4 °F 30.09 in WNW 2.8 mph 6.9 mph 48 % 0.00 in
19:16 42.6 °F 24.8 °F 30.09 in WNW 2.6 mph 3.5 mph 49 % 0.00 in
19:21 42.5 °F 25.1 °F 30.09 in NW 2.1 mph 3.5 mph 50 % 0.00 in
19:24 42.4 °F 25.1 °F 30.09 in West 1.8 mph 3.5 mph 50 % 0.00 in
19:29 42.3 °F 25.0 °F 30.09 in WSW 2.1 mph 6.9 mph 50 % 0.00 in
19:34 42.2 °F 25.3 °F 30.10 in WNW 5.4 mph 9.2 mph 51 % 0.00 in
19:39 42.1 °F 24.8 °F 30.09 in WNW 3.6 mph 11.5 mph 50 % 0.00 in
19:44 42.1 °F 24.8 °F 30.09 in NW 3.7 mph 6.0 mph 50 % 0.00 in
19:49 42.0 °F 25.2 °F 30.10 in WNW 3.3 mph 8.1 mph 51 % 0.00 in
19:54 42.0 °F 25.2 °F 30.10 in WNW 3.7 mph 9.2 mph 51 % 0.00 in
19:59 42.0 °F 25.2 °F 30.11 in NW 3.3 mph 10.4 mph 51 % 0.00 in
20:04 42.0 °F 25.2 °F 30.11 in NW 4.0 mph 7.0 mph 51 % 0.00 in
20:09 42.0 °F 25.2 °F 30.10 in WNW 4.7 mph 7.0 mph 51 % 0.00 in
20:14 42.0 °F 24.7 °F 30.11 in WNW 3.8 mph 8.1 mph 50 % 0.00 in
20:19 42.0 °F 24.7 °F 30.10 in WNW 3.0 mph 7.0 mph 50 % 0.00 in
20:24 41.9 °F 24.1 °F 30.10 in WNW 6.0 mph 11.5 mph 49 % 0.00 in
20:29 41.9 °F 24.1 °F 30.10 in WNW 4.1 mph 9.2 mph 49 % 0.00 in
20:34 41.9 °F 24.1 °F 30.10 in WNW 0.3 mph 4.6 mph 49 % 0.00 in
20:39 41.8 °F 24.5 °F 30.10 in WNW 1.9 mph 3.5 mph 50 % 0.00 in
20:44 41.8 °F 24.5 °F 30.10 in NNW 1.0 mph 3.5 mph 50 % 0.00 in
20:49 41.7 °F 24.4 °F 30.10 in WNW 2.8 mph 5.8 mph 50 % 0.00 in
20:54 41.6 °F 24.3 °F 30.10 in North 3.9 mph 8.1 mph 50 % 0.00 in
21:00 41.5 °F 24.2 °F 30.09 in WNW 4.9 mph 8.0 mph 50 % 0.00 in
21:05 41.4 °F 23.6 °F 30.09 in NNW 0.3 mph 5.8 mph 49 % 0.00 in
21:10 41.2 °F 24.4 °F 30.09 in NW 1.7 mph 3.5 mph 51 % 0.00 in
21:15 41.1 °F 24.8 °F 30.09 in NNW 2.8 mph 5.8 mph 52 % 0.00 in
21:20 41.1 °F 23.9 °F 30.09 in NNE 2.3 mph 7.0 mph 50 % 0.00 in
21:25 41.0 °F 23.8 °F 30.08 in NNW 1.9 mph 4.6 mph 50 % 0.00 in
21:30 40.9 °F 24.1 °F 30.08 in WNW 1.7 mph 4.0 mph 51 % 0.00 in
21:35 40.9 °F 24.1 °F 30.09 in WNW 0.2 mph 3.0 mph 51 % 0.00 in
21:40 40.7 °F 24.0 °F 30.08 in Calm     51 % 0.00 in
21:45 40.6 °F 24.3 °F 30.08 in WNW 1.3 mph 2.3 mph 52 % 0.00 in
21:50 40.5 °F 24.2 °F 30.08 in West 1.5 mph 3.5 mph 52 % 0.00 in
21:55 40.3 °F 24.1 °F 30.08 in West 3.8 mph 5.8 mph 52 % 0.00 in
22:00 40.2 °F 24.9 °F 30.09 in West 2.1 mph 5.8 mph 54 % 0.00 in
22:05 40.1 °F 24.8 °F 30.09 in WNW 0.5 mph 2.3 mph 54 % 0.00 in
22:11 40.0 °F 25.6 °F 30.10 in WNW 1.8 mph 5.8 mph 56 % 0.00 in
22:17 39.9 °F 25.0 °F 30.10 in NW 1.0 mph 9.2 mph 55 % 0.00 in
22:22 39.8 °F 24.9 °F 30.11 in West 1.2 mph 5.8 mph 55 % 0.00 in
22:23 39.8 °F 25.4 °F 30.11 in WNW 1.3 mph 3.5 mph 56 % 0.00 in
22:24 39.8 °F 24.9 °F 29.86 in West 4.7 mph 6.0 mph 55 % 0.00 in
22:27 39.7 °F 24.8 °F 30.11 in WSW 2.5 mph 6.9 mph 55 % 0.00 in
22:32 39.7 °F 24.8 °F 30.11 in West 3.5 mph 6.0 mph 55 % 0.00 in
22:33 39.7 °F 24.8 °F 30.11 in WSW 3.2 mph 5.8 mph 55 % 0.00 in
22:38 39.7 °F 24.4 °F 30.10 in West 1.1 mph 5.8 mph 54 % 0.00 in
22:43 39.7 °F 24.8 °F 30.10 in West 1.8 mph 5.8 mph 55 % 0.00 in
22:48 39.7 °F 24.8 °F 30.09 in WNW 3.5 mph 5.8 mph 55 % 0.00 in
22:53 39.7 °F 25.3 °F 30.10 in West 2.8 mph 3.5 mph 56 % 0.00 in
22:58 39.6 °F 25.2 °F 30.09 in West 1.0 mph 2.3 mph 56 % 0.00 in
23:03 39.6 °F 25.6 °F 30.09 in NW 2.2 mph 6.9 mph 57 % 0.00 in
23:08 39.6 °F 25.6 °F 30.08 in West 2.8 mph 4.6 mph 57 % 0.00 in
23:13 39.5 °F 25.5 °F 30.09 in West 2.0 mph 3.5 mph 57 % 0.00 in
23:18 39.4 °F 25.8 °F 30.09 in West 1.6 mph 3.5 mph 58 % 0.00 in
23:23 39.3 °F 25.7 °F 30.09 in WNW 3.1 mph 5.8 mph 58 % 0.00 in
23:28 39.3 °F 25.7 °F 30.09 in West 0.7 mph 4.6 mph 58 % 0.00 in
23:33 39.3 °F 26.2 °F 30.09 in WNW 1.7 mph 5.8 mph 59 % 0.00 in
23:38 39.2 °F 26.1 °F 30.09 in NW 2.1 mph 3.5 mph 59 % 0.00 in
23:44 39.1 °F 26.0 °F 30.09 in WNW 2.6 mph 8.1 mph 59 % 0.00 in
23:49 39.1 °F 26.4 °F 30.08 in NW 2.3 mph 6.9 mph 60 % 0.00 in
23:54 39.0 °F 26.3 °F 30.08 in NW 1.3 mph 3.5 mph 60 % 0.00 in
23:59 39.0 °F 26.3 °F 30.09 in WNW 0.5 mph 3.5 mph 60 % 0.00 in
Crab Meadow Weather
Compliments of Weather Underground - 3 mb

Script developed by  Jim McMurry - jmcmurry@mwt.net Adapted for the template by  Wim van der Kuil - Leuven-Template.eu

Weather Terms: Flash Flood Warning - Flash flooding is occurring, imminent or highly likely. A flash flood is a flood that occurs within 6 hours of excessive rainfall and that poses a threat to life and/or property. Ice jams and dam failures can also cause flash floods. These warnings are issued on a county by county basis by the local Weather Forecast Office in Upton and are generally in effect for up to 6 hours.